Time;durP1;ratioP1;P1;durP2;ratioP2;P2;SDS_P1;SDS_P2;PMS_P1;PMS_P2;Temp;Humidity;BMP_temperature;BMP_pressure;BME280_temperature;BME280_humidity;BME280_pressure;Samples;Min_cycle;Max_cycle;Signal;HPM_P1;HPM_P2
2021/01/26 00:00:33;;;;;;;;;;;2.40;96.30;;;;;;4409313;32;30330;-74
2021/01/26 00:03:03;;;;;;;;;;;2.40;96.20;;;;;;4407306;32;20007;-73
2021/01/26 00:05:32;;;;;;;;;;;2.40;96.20;;;;;;4406188;32;42424;-74
2021/01/26 00:08:03;;;;;;;;;;;2.40;96.20;;;;;;4408232;32;20380;-73
2021/01/26 00:10:32;;;;;;;;;;;2.50;96.30;;;;;;4406384;32;38133;-73
2021/01/26 00:12:59;;;;;;;;;;;2.40;96.20;;;;;;4406378;32;44505;-73
2021/01/26 00:15:26;;;;;;;;;;;2.40;96.20;;;;;;4407292;32;20047;-74
2021/01/26 00:17:54;;;;;;;;;;;2.50;96.30;;;;;;4406901;32;39348;-73
2021/01/26 00:20:24;;;;;;;;;;;2.50;96.30;;;;;;4405921;32;37002;-73
2021/01/26 00:22:53;;;;;;;;;;;2.50;96.30;;;;;;4407110;32;20360;-73
2021/01/26 00:25:27;;;;;;;;;;;2.40;96.30;;;;;;4406314;32;44019;-73
2021/01/26 00:27:59;;;;;;;;;;;2.50;96.30;;;;;;4408267;32;20018;-74
2021/01/26 00:30:30;;;;;;;;;;;2.50;96.30;;;;;;4406419;32;40167;-73
2021/01/26 00:33:01;;;;;;;;;;;2.40;96.30;;;;;;4393517;32;38745;-74
2021/01/26 00:35:29;;;;;;;;;;;2.50;96.40;;;;;;4406139;32;30815;-74
2021/01/26 00:37:57;;;;;;;;;;;2.50;96.30;;;;;;4405647;32;38816;-73
2021/01/26 00:40:26;;;;;;;;;;;2.50;96.30;;;;;;4408284;32;20063;-73
2021/01/26 00:42:56;;;;;;;;;;;2.50;96.30;;;;;;4407467;32;20000;-73
2021/01/26 00:45:26;;;;;;;;;;;2.50;96.30;;;;;;4407178;32;35492;-73
2021/01/26 00:47:56;;;;;;;;;;;2.50;96.40;;;;;;4406646;32;36460;-74
2021/01/26 00:50:27;;;;;;;;;;;2.50;96.30;;;;;;4406152;32;26899;-74
2021/01/26 00:52:56;;;;;;;;;;;2.50;96.70;;;;;;4405191;32;39734;-74
2021/01/26 00:55:24;;;;;;;;;;;2.50;96.40;;;;;;4407762;32;20090;-74
2021/01/26 00:57:51;;;;;;;;;;;2.50;96.40;;;;;;4406668;32;29264;-74
2021/01/26 01:00:44;;;;;;;;;;;2.50;96.40;;;;;;4407933;32;20015;-74
2021/01/26 01:03:10;;;;;;;;;;;2.50;96.40;;;;;;4402820;32;28595;-74
2021/01/26 01:05:37;;;;;;;;;;;2.50;96.40;;;;;;4406769;32;38042;-74
2021/01/26 01:08:03;;;;;;;;;;;2.50;96.40;;;;;;4405602;32;31599;-74
2021/01/26 01:10:34;;;;;;;;;;;2.50;96.30;;;;;;4406596;32;27968;-74
2021/01/26 01:13:00;;;;;;;;;;;2.50;96.40;;;;;;4406393;32;20011;-74
2021/01/26 01:15:29;;;;;;;;;;;2.50;96.40;;;;;;4407686;32;20455;-74
2021/01/26 01:17:59;;;;;;;;;;;2.50;96.40;;;;;;4407419;32;20052;-75
2021/01/26 01:20:30;;;;;;;;;;;2.50;96.40;;;;;;4406737;32;20380;-74
2021/01/26 01:22:59;;;;;;;;;;;2.50;96.40;;;;;;4406948;32;20108;-74
2021/01/26 01:25:26;;;;;;;;;;;2.50;96.40;;;;;;4406600;32;29815;-73
2021/01/26 01:27:53;;;;;;;;;;;2.50;96.40;;;;;;4407173;32;20008;-73
2021/01/26 01:30:25;;;;;;;;;;;2.50;96.40;;;;;;4407506;32;20007;-73
2021/01/26 01:32:58;;;;;;;;;;;2.50;96.40;;;;;;4405551;32;31915;-74
2021/01/26 01:35:25;;;;;;;;;;;2.50;96.30;;;;;;4405481;32;35723;-73
2021/01/26 01:37:51;;;;;;;;;;;2.50;96.30;;;;;;4406498;32;31846;-73
2021/01/26 01:40:23;;;;;;;;;;;2.50;96.40;;;;;;4405244;32;20516;-73
2021/01/26 01:42:53;;;;;;;;;;;2.50;96.40;;;;;;4407046;32;20003;-73
2021/01/26 01:45:21;;;;;;;;;;;2.50;96.30;;;;;;4392639;32;24220;-73
2021/01/26 01:47:56;;;;;;;;;;;2.50;96.30;;;;;;4393238;32;20355;-73
2021/01/26 01:50:31;;;;;;;;;;;2.50;96.30;;;;;;4405930;32;20016;-73
2021/01/26 01:53:01;;;;;;;;;;;2.50;96.30;;;;;;4406659;32;20368;-73
2021/01/26 01:55:31;;;;;;;;;;;2.50;96.30;;;;;;4405895;32;20004;-75
2021/01/26 01:58:03;;;;;;;;;;;2.50;96.30;;;;;;4407343;32;20015;-73
2021/01/26 02:00:34;;;;;;;;;;;2.50;96.30;;;;;;4406979;32;20149;-73
2021/01/26 02:03:05;;;;;;;;;;;2.50;96.40;;;;;;4418655;32;20475;-73
2021/01/26 02:05:34;;;;;;;;;;;2.50;96.30;;;;;;4407875;32;19987;-73
2021/01/26 02:08:07;;;;;;;;;;;2.50;96.40;;;;;;4421981;32;20018;-73
2021/01/26 02:10:36;;;;;;;;;;;2.50;96.40;;;;;;4422233;32;20432;-73
2021/01/26 02:13:10;;;;;;;;;;;2.50;96.40;;;;;;4422363;32;20063;-73
2021/01/26 02:15:42;;;;;;;;;;;2.50;96.40;;;;;;4422130;32;20085;-73
2021/01/26 02:18:24;;;;;;;;;;;2.50;96.40;;;;;;4408488;32;20007;-73
2021/01/26 02:21:05;;;;;;;;;;;2.50;96.40;;;;;;4408439;32;20008;-73
2021/01/26 02:23:56;;;;;;;;;;;2.50;96.30;;;;;;4407418;32;34031;-73
2021/01/26 02:26:39;;;;;;;;;;;2.50;96.30;;;;;;4407210;32;36592;-73
2021/01/26 02:29:11;;;;;;;;;;;2.50;96.40;;;;;;4421294;32;20014;-73
2021/01/26 02:31:44;;;;;;;;;;;2.50;96.30;;;;;;4407337;32;42658;-74
2021/01/26 02:34:11;;;;;;;;;;;2.50;96.30;;;;;;4420427;32;37817;-73
2021/01/26 02:36:53;;;;;;;;;;;2.50;96.30;;;;;;4407558;32;20029;-73
2021/01/26 02:39:24;;;;;;;;;;;2.50;96.30;;;;;;4421455;32;20067;-73
2021/01/26 02:42:10;;;;;;;;;;;2.50;96.30;;;;;;4422021;32;20475;-73
2021/01/26 02:44:52;;;;;;;;;;;2.50;96.30;;;;;;4407675;32;20431;-73
2021/01/26 02:47:37;;;;;;;;;;;2.50;96.30;;;;;;4421635;32;20003;-73
2021/01/26 02:50:14;;;;;;;;;;;2.50;96.30;;;;;;4408172;32;20067;-73
2021/01/26 02:52:50;;;;;;;;;;;2.50;96.30;;;;;;4408232;32;20062;-73
2021/01/26 02:55:26;;;;;;;;;;;2.50;96.30;;;;;;4421788;32;20438;-73
2021/01/26 02:58:15;;;;;;;;;;;2.50;96.30;;;;;;4421183;32;20012;-73
2021/01/26 03:00:47;;;;;;;;;;;2.50;96.30;;;;;;4413148;32;20018;-73
2021/01/26 03:03:32;;;;;;;;;;;2.50;96.40;;;;;;4421430;32;20059;-73
2021/01/26 03:06:05;;;;;;;;;;;2.50;96.40;;;;;;4421824;32;20063;-74
2021/01/26 03:08:46;;;;;;;;;;;2.50;96.40;;;;;;4407852;32;19997;-74
2021/01/26 03:11:18;;;;;;;;;;;2.50;96.30;;;;;;4407691;32;19995;-73
2021/01/26 03:13:57;;;;;;;;;;;2.50;96.30;;;;;;4421352;32;20003;-74
2021/01/26 03:16:28;;;;;;;;;;;2.50;96.40;;;;;;4408516;32;20003;-74
2021/01/26 03:19:10;;;;;;;;;;;2.50;96.40;;;;;;4410557;32;20011;-74
2021/01/26 03:21:38;;;;;;;;;;;2.50;96.30;;;;;;4423344;32;44044;-74
2021/01/26 03:24:13;;;;;;;;;;;2.50;96.40;;;;;;4396491;32;42591;-74
2021/01/26 03:26:44;;;;;;;;;;;2.50;96.40;;;;;;4423144;32;43834;-74
2021/01/26 03:29:12;;;;;;;;;;;2.50;96.30;;;;;;4423336;32;44395;-74
2021/01/26 03:31:52;;;;;;;;;;;2.50;96.30;;;;;;4424342;32;20446;-74
2021/01/26 03:34:22;;;;;;;;;;;2.50;96.40;;;;;;4409304;32;39011;-74
2021/01/26 03:36:51;;;;;;;;;;;2.50;96.40;;;;;;4410434;32;20363;-73
2021/01/26 03:39:20;;;;;;;;;;;2.50;96.40;;;;;;4423283;32;20044;-73
2021/01/26 03:41:50;;;;;;;;;;;2.50;96.30;;;;;;4422961;32;41249;-73
2021/01/26 03:44:16;;;;;;;;;;;2.50;96.30;;;;;;4423031;32;32673;-74
2021/01/26 03:46:50;;;;;;;;;;;2.50;96.30;;;;;;4422458;32;45012;-73
2021/01/26 03:49:36;;;;;;;;;;;2.50;96.30;;;;;;4409173;32;37294;-73
2021/01/26 03:52:11;;;;;;;;;;;2.50;96.30;;;;;;4423206;32;35625;-73
2021/01/26 03:54:53;;;;;;;;;;;2.40;96.30;;;;;;4422853;32;44915;-73
2021/01/26 03:57:26;;;;;;;;;;;2.40;96.30;;;;;;4409101;32;44785;-73
2021/01/26 04:00:08;;;;;;;;;;;2.40;96.30;;;;;;4409529;32;19987;-73
2021/01/26 04:02:53;;;;;;;;;;;2.50;96.30;;;;;;4407522;32;20030;-73
2021/01/26 04:05:24;;;;;;;;;;;2.50;96.30;;;;;;4408579;32;20008;-73
2021/01/26 04:08:08;;;;;;;;;;;2.40;96.30;;;;;;4408860;32;20011;-73
2021/01/26 04:10:42;;;;;;;;;;;2.50;96.30;;;;;;4408911;32;20047;-73
2021/01/26 04:13:12;;;;;;;;;;;2.50;96.30;;;;;;4407742;32;20012;-73
2021/01/26 04:15:45;;;;;;;;;;;2.50;96.30;;;;;;4407571;32;20027;-73
2021/01/26 04:18:16;;;;;;;;;;;2.50;96.30;;;;;;4408194;32;20037;-73
2021/01/26 04:20:53;;;;;;;;;;;2.50;96.30;;;;;;4407497;32;20052;-73
2021/01/26 04:23:23;;;;;;;;;;;2.40;96.20;;;;;;4408532;32;20031;-73
2021/01/26 04:26:03;;;;;;;;;;;2.50;96.30;;;;;;4407271;32;20030;-73
2021/01/26 04:28:29;;;;;;;;;;;2.50;96.30;;;;;;4406265;32;20035;-73
2021/01/26 04:30:56;;;;;;;;;;;2.40;96.20;;;;;;4407101;32;20416;-73
2021/01/26 04:33:28;;;;;;;;;;;2.50;96.30;;;;;;4394480;32;19996;-73
2021/01/26 04:35:57;;;;;;;;;;;2.50;96.30;;;;;;4408444;32;20014;-73
2021/01/26 04:38:30;;;;;;;;;;;2.40;96.20;;;;;;4407411;32;20537;-74
2021/01/26 04:41:03;;;;;;;;;;;2.40;96.20;;;;;;4407101;32;20022;-73
2021/01/26 04:43:48;;;;;;;;;;;2.50;96.30;;;;;;4406733;32;20027;-74
2021/01/26 04:46:29;;;;;;;;;;;2.40;96.20;;;;;;4407503;32;20018;-73
2021/01/26 04:49:19;;;;;;;;;;;2.40;96.20;;;;;;4407907;32;20023;-73
2021/01/26 04:52:11;;;;;;;;;;;2.40;96.20;;;;;;4408029;32;20020;-73
2021/01/26 04:54:43;;;;;;;;;;;2.40;96.30;;;;;;4408284;32;20075;-73
2021/01/26 04:57:18;;;;;;;;;;;2.40;96.20;;;;;;4407922;32;20426;-73
2021/01/26 04:59:58;;;;;;;;;;;2.40;96.20;;;;;;4407089;32;20085;-74
2021/01/26 05:02:33;;;;;;;;;;;2.40;96.30;;;;;;4415810;32;20088;-73
2021/01/26 05:05:12;;;;;;;;;;;2.40;96.30;;;;;;4396475;32;20426;-74
2021/01/26 05:07:48;;;;;;;;;;;2.40;96.20;;;;;;4409149;32;19995;-74
2021/01/26 05:10:28;;;;;;;;;;;2.40;96.30;;;;;;4408638;32;30633;-73
2021/01/26 05:13:02;;;;;;;;;;;2.40;96.30;;;;;;4408743;32;19995;-74
2021/01/26 05:15:33;;;;;;;;;;;2.40;96.30;;;;;;4422911;32;20003;-74
2021/01/26 05:18:05;;;;;;;;;;;2.40;96.30;;;;;;4396456;32;19991;-73
2021/01/26 05:20:36;;;;;;;;;;;2.40;96.30;;;;;;4408594;32;20003;-74
2021/01/26 05:23:24;;;;;;;;;;;2.40;96.30;;;;;;4422949;32;20007;-74
2021/01/26 05:26:16;;;;;;;;;;;2.40;96.30;;;;;;4422516;32;20015;-74
2021/01/26 05:28:46;;;;;;;;;;;2.40;96.30;;;;;;4409003;32;20055;-74
2021/01/26 05:31:26;;;;;;;;;;;2.40;96.30;;;;;;4422303;32;20011;-74
2021/01/26 05:34:03;;;;;;;;;;;2.40;96.30;;;;;;4396405;32;20042;-74
2021/01/26 05:36:35;;;;;;;;;;;2.40;96.30;;;;;;4396313;32;20384;-74
2021/01/26 05:39:08;;;;;;;;;;;2.40;96.30;;;;;;4408912;32;20074;-74
2021/01/26 05:41:35;;;;;;;;;;;2.40;96.30;;;;;;4422606;32;20007;-74
2021/01/26 05:44:04;;;;;;;;;;;2.40;96.30;;;;;;4408720;32;20017;-74
2021/01/26 05:46:44;;;;;;;;;;;2.40;96.30;;;;;;4408308;32;20055;-73
2021/01/26 05:49:31;;;;;;;;;;;2.40;96.30;;;;;;4408572;32;20375;-73
2021/01/26 05:52:03;;;;;;;;;;;2.40;96.30;;;;;;4422250;32;20021;-73
2021/01/26 05:54:34;;;;;;;;;;;2.40;96.30;;;;;;4422850;32;20392;-73
2021/01/26 05:57:00;;;;;;;;;;;2.40;96.30;;;;;;4408874;32;20018;-73
2021/01/26 05:59:30;;;;;;;;;;;2.40;96.30;;;;;;4420770;32;35804;-73
2021/01/26 06:02:09;;;;;;;;;;;2.40;96.30;;;;;;4420738;32;36529;-73
2021/01/26 06:04:39;;;;;;;;;;;2.40;96.30;;;;;;4407247;32;32651;-73
2021/01/26 06:07:15;;;;;;;;;;;2.40;96.30;;;;;;4420839;32;29520;-73
2021/01/26 06:09:43;;;;;;;;;;;2.40;96.30;;;;;;4408065;32;20351;-73
2021/01/26 06:12:15;;;;;;;;;;;2.40;96.30;;;;;;4407290;32;44526;-73
2021/01/26 06:14:44;;;;;;;;;;;2.40;96.30;;;;;;4394832;32;29654;-73
2021/01/26 06:17:29;;;;;;;;;;;2.40;96.30;;;;;;4420761;32;44538;-74
2021/01/26 06:20:09;;;;;;;;;;;2.40;96.30;;;;;;4407927;32;22980;-73
2021/01/26 06:22:36;;;;;;;;;;;2.40;96.30;;;;;;4421041;32;33732;-73
2021/01/26 06:25:08;;;;;;;;;;;2.40;96.30;;;;;;4421749;32;20438;-73
2021/01/26 06:27:48;;;;;;;;;;;2.40;96.30;;;;;;4407681;32;20408;-74
2021/01/26 06:30:15;;;;;;;;;;;2.40;96.30;;;;;;4406946;32;30858;-73
2021/01/26 06:33:00;;;;;;;;;;;2.40;96.30;;;;;;4407345;32;29124;-73
2021/01/26 06:35:46;;;;;;;;;;;2.40;96.60;;;;;;4394078;32;44995;-73
2021/01/26 06:38:30;;;;;;;;;;;2.40;96.30;;;;;;4420696;32;25638;-73
2021/01/26 06:41:14;;;;;;;;;;;2.40;96.30;;;;;;4407332;32;37142;-73
2021/01/26 06:43:47;;;;;;;;;;;2.40;96.30;;;;;;4420308;32;43629;-73
2021/01/26 06:46:13;;;;;;;;;;;2.40;96.30;;;;;;4420577;32;41433;-74
2021/01/26 06:48:43;;;;;;;;;;;2.40;96.30;;;;;;4407001;32;41257;-73
2021/01/26 06:51:24;;;;;;;;;;;2.40;96.20;;;;;;4407788;32;20071;-73
2021/01/26 06:53:59;;;;;;;;;;;2.40;96.20;;;;;;4421810;32;20067;-73
2021/01/26 06:56:40;;;;;;;;;;;2.40;96.20;;;;;;4421805;32;20482;-73
2021/01/26 06:59:16;;;;;;;;;;;2.40;96.20;;;;;;4408111;32;20021;-73
2021/01/26 07:02:01;;;;;;;;;;;2.40;96.20;;;;;;4421236;32;20007;-73
2021/01/26 07:04:37;;;;;;;;;;;2.40;96.20;;;;;;4421287;32;20071;-74
2021/01/26 07:07:06;;;;;;;;;;;2.40;96.20;;;;;;4421610;32;20008;-74
2021/01/26 07:09:38;;;;;;;;;;;2.40;96.20;;;;;;4408547;32;20003;-73
2021/01/26 07:12:11;;;;;;;;;;;2.40;96.20;;;;;;4421596;32;20007;-73
2021/01/26 07:14:56;;;;;;;;;;;2.40;96.20;;;;;;4420605;32;38177;-74
2021/01/26 07:17:28;;;;;;;;;;;2.40;96.20;;;;;;4420252;32;41602;-73
2021/01/26 07:20:02;;;;;;;;;;;2.40;96.20;;;;;;4407163;32;22731;-73
2021/01/26 07:22:42;;;;;;;;;;;2.40;96.20;;;;;;4420226;32;37573;-73
2021/01/26 07:25:20;;;;;;;;;;;2.30;96.10;;;;;;4407764;32;20007;-74
2021/01/26 07:28:05;;;;;;;;;;;2.40;96.20;;;;;;4407798;32;19999;-74
2021/01/26 07:30:38;;;;;;;;;;;2.30;96.10;;;;;;4421049;32;19995;-73
2021/01/26 07:33:10;;;;;;;;;;;2.30;96.10;;;;;;4421383;32;20017;-74
2021/01/26 07:35:50;;;;;;;;;;;2.30;96.10;;;;;;4407663;32;20094;-73
2021/01/26 07:38:20;;;;;;;;;;;2.30;96.10;;;;;;4407856;32;20027;-74
2021/01/26 07:40:53;;;;;;;;;;;2.30;96.40;;;;;;4407606;32;20043;-73
2021/01/26 07:43:40;;;;;;;;;;;2.30;96.10;;;;;;4407917;32;20030;-74
2021/01/26 07:46:11;;;;;;;;;;;2.30;96.10;;;;;;4407855;32;20008;-74
2021/01/26 07:48:52;;;;;;;;;;;2.30;96.10;;;;;;4421445;32;20066;-74
2021/01/26 07:51:25;;;;;;;;;;;2.30;96.10;;;;;;4407771;32;20026;-74
2021/01/26 07:53:57;;;;;;;;;;;2.30;96.10;;;;;;4421562;32;20019;-74
2021/01/26 07:56:24;;;;;;;;;;;2.30;96.10;;;;;;4407579;32;20011;-73
2021/01/26 07:58:51;;;;;;;;;;;2.30;96.10;;;;;;4421197;32;20014;-73
2021/01/26 08:01:19;;;;;;;;;;;2.30;96.10;;;;;;4420239;32;27777;-74
2021/01/26 08:03:53;;;;;;;;;;;2.30;96.10;;;;;;4407807;32;36292;-73
2021/01/26 08:06:35;;;;;;;;;;;2.30;96.20;;;;;;4409706;32;20007;-73
2021/01/26 08:09:03;;;;;;;;;;;2.30;96.10;;;;;;4408845;32;32557;-73
2021/01/26 08:11:30;;;;;;;;;;;2.30;96.20;;;;;;4409349;32;33106;-73
2021/01/26 08:14:01;;;;;;;;;;;2.30;96.20;;;;;;4423347;32;20392;-74
2021/01/26 08:16:27;;;;;;;;;;;2.30;96.20;;;;;;4423415;32;20041;-74
2021/01/26 08:18:56;;;;;;;;;;;2.30;96.20;;;;;;4423246;32;19999;-73
2021/01/26 08:21:43;;;;;;;;;;;2.30;96.20;;;;;;4409510;32;20052;-73
2021/01/26 08:24:11;;;;;;;;;;;2.30;96.20;;;;;;4423041;32;29100;-73
2021/01/26 08:26:41;;;;;;;;;;;2.30;96.20;;;;;;4422348;32;35593;-73
2021/01/26 08:29:11;;;;;;;;;;;2.30;96.20;;;;;;4408866;32;27723;-73
2021/01/26 08:31:39;;;;;;;;;;;2.30;96.20;;;;;;4408577;32;28260;-73
2021/01/26 08:34:31;;;;;;;;;;;2.30;96.10;;;;;;4423204;32;20067;-73
2021/01/26 08:37:07;;;;;;;;;;;2.30;96.20;;;;;;4423208;32;20063;-73
2021/01/26 08:39:37;;;;;;;;;;;2.30;96.20;;;;;;4409886;32;20051;-74
2021/01/26 08:42:10;;;;;;;;;;;2.30;96.20;;;;;;4396893;32;20003;-74
2021/01/26 08:44:36;;;;;;;;;;;2.30;96.20;;;;;;4409183;32;20453;-73
2021/01/26 08:47:39;;;;;;;;;;;2.30;96.20;;;;;;4423497;32;20051;-73
2021/01/26 08:50:15;;;;;;;;;;;2.30;96.30;;;;;;4409424;32;19991;-73
2021/01/26 08:52:47;;;;;;;;;;;2.30;96.20;;;;;;4409534;32;20055;-73
2021/01/26 08:55:33;;;;;;;;;;;2.30;96.20;;;;;;4423395;32;20038;-73
2021/01/26 08:58:05;;;;;;;;;;;2.30;96.30;;;;;;4423086;32;20003;-73
2021/01/26 09:00:40;;;;;;;;;;;2.30;96.30;;;;;;4396706;32;20002;-74
2021/01/26 09:03:26;;;;;;;;;;;2.30;96.30;;;;;;4422653;32;20008;-73
2021/01/26 09:06:06;;;;;;;;;;;2.30;96.30;;;;;;4423021;32;20003;-73
2021/01/26 09:08:56;;;;;;;;;;;2.30;96.30;;;;;;4396539;32;20013;-74
2021/01/26 09:11:29;;;;;;;;;;;2.30;96.30;;;;;;4396380;32;20055;-74
2021/01/26 09:14:05;;;;;;;;;;;2.30;96.30;;;;;;4409472;32;20011;-73
2021/01/26 09:16:38;;;;;;;;;;;2.40;96.30;;;;;;4409286;32;20008;-74
2021/01/26 09:19:25;;;;;;;;;;;2.40;96.30;;;;;;4409188;32;20078;-74
2021/01/26 09:21:52;;;;;;;;;;;2.40;96.20;;;;;;4408424;32;24256;-73
2021/01/26 09:24:26;;;;;;;;;;;2.40;96.20;;;;;;4396110;32;20019;-73
2021/01/26 09:26:56;;;;;;;;;;;2.40;96.20;;;;;;4408715;32;20006;-73
2021/01/26 09:29:24;;;;;;;;;;;2.40;96.30;;;;;;4421627;32;38910;-73
2021/01/26 09:31:51;;;;;;;;;;;2.40;96.30;;;;;;4409164;32;20054;-74
2021/01/26 09:34:24;;;;;;;;;;;2.40;96.30;;;;;;4408415;32;20071;-74
2021/01/26 09:36:54;;;;;;;;;;;2.40;96.30;;;;;;4408961;32;20029;-73
2021/01/26 09:39:21;;;;;;;;;;;2.40;96.30;;;;;;4396017;32;20000;-74
2021/01/26 09:41:50;;;;;;;;;;;2.40;96.20;;;;;;4422332;32;20059;-73
2021/01/26 09:44:22;;;;;;;;;;;2.40;96.20;;;;;;4422158;32;20063;-73
2021/01/26 09:46:58;;;;;;;;;;;2.40;96.20;;;;;;4408701;32;20375;-73
2021/01/26 09:49:30;;;;;;;;;;;2.40;96.30;;;;;;4408670;32;20385;-73
2021/01/26 09:52:10;;;;;;;;;;;2.40;96.30;;;;;;4409611;32;20066;-74
2021/01/26 09:54:39;;;;;;;;;;;2.40;96.20;;;;;;4422457;32;20325;-74
2021/01/26 09:57:07;;;;;;;;;;;2.40;96.20;;;;;;4422005;32;20034;-74
2021/01/26 09:59:39;;;;;;;;;;;2.40;96.20;;;;;;4422483;32;20063;-74
2021/01/26 10:02:10;;;;;;;;;;;2.50;96.20;;;;;;4407933;32;19999;-74
2021/01/26 10:04:39;;;;;;;;;;;2.50;96.20;;;;;;4408573;32;20015;-74
2021/01/26 10:07:19;;;;;;;;;;;2.50;96.30;;;;;;4422487;32;20063;-74
2021/01/26 10:09:46;;;;;;;;;;;2.50;96.30;;;;;;4408462;32;20027;-73
2021/01/26 10:12:20;;;;;;;;;;;2.50;96.30;;;;;;4408541;32;20444;-73
2021/01/26 10:15:05;;;;;;;;;;;2.50;96.20;;;;;;4407919;32;20043;-73
2021/01/26 10:17:38;;;;;;;;;;;2.50;96.20;;;;;;4408107;32;20002;-73
2021/01/26 10:20:07;;;;;;;;;;;2.50;96.20;;;;;;4421937;32;20018;-73
2021/01/26 10:22:39;;;;;;;;;;;2.50;96.20;;;;;;4408026;32;20057;-73
2021/01/26 10:25:07;;;;;;;;;;;2.50;96.20;;;;;;4421325;32;20021;-74
2021/01/26 10:27:40;;;;;;;;;;;2.60;96.20;;;;;;4408057;32;20051;-73
2021/01/26 10:30:15;;;;;;;;;;;2.60;96.30;;;;;;4408334;32;20061;-73
2021/01/26 10:32:42;;;;;;;;;;;2.60;96.30;;;;;;4421966;32;20427;-73
2021/01/26 10:35:44;;;;;;;;;;;2.60;96.20;;;;;;4408218;32;20066;-73
2021/01/26 10:38:27;;;;;;;;;;;2.60;96.20;;;;;;4421272;32;20048;-74
2021/01/26 10:41:04;;;;;;;;;;;2.60;96.30;;;;;;4421347;32;20007;-73
2021/01/26 10:43:31;;;;;;;;;;;2.60;96.30;;;;;;4407943;32;20506;-73
2021/01/26 10:46:02;;;;;;;;;;;2.70;96.40;;;;;;4421795;32;20033;-74
2021/01/26 10:48:33;;;;;;;;;;;2.70;96.50;;;;;;4421688;32;20011;-74
2021/01/26 10:51:27;;;;;;;;;;;2.70;96.40;;;;;;4421668;32;20373;-73
2021/01/26 10:53:57;;;;;;;;;;;2.70;96.30;;;;;;4406238;32;20003;-73
2021/01/26 10:56:24;;;;;;;;;;;2.80;96.40;;;;;;4421237;32;20058;-73
2021/01/26 10:58:50;;;;;;;;;;;2.90;96.40;;;;;;4394831;32;20004;-73
2021/01/26 11:01:18;;;;;;;;;;;3.00;96.40;;;;;;4420951;32;20023;-74
2021/01/26 11:03:47;;;;;;;;;;;3.00;96.30;;;;;;4395454;32;20047;-74
2021/01/26 11:06:19;;;;;;;;;;;3.10;96.30;;;;;;4408059;32;20058;-73
2021/01/26 11:08:47;;;;;;;;;;;3.10;96.20;;;;;;4395376;32;20007;-73
2021/01/26 11:11:22;;;;;;;;;;;3.10;96.20;;;;;;4421605;32;19999;-73
2021/01/26 11:13:51;;;;;;;;;;;3.10;96.20;;;;;;4407776;32;20469;-74
2021/01/26 11:16:19;;;;;;;;;;;3.10;96.20;;;;;;4394841;32;20483;-74
2021/01/26 11:18:51;;;;;;;;;;;3.10;96.20;;;;;;4421034;32;20048;-74
2021/01/26 11:21:19;;;;;;;;;;;3.20;96.20;;;;;;4407455;32;20122;-73
2021/01/26 11:23:46;;;;;;;;;;;3.20;96.20;;;;;;4407987;32;20067;-74
2021/01/26 11:26:14;;;;;;;;;;;3.20;96.20;;;;;;4421038;32;20058;-73
2021/01/26 11:28:41;;;;;;;;;;;3.20;96.30;;;;;;4407480;32;20063;-73
2021/01/26 11:31:07;;;;;;;;;;;3.30;96.10;;;;;;4421095;32;20063;-73
2021/01/26 11:33:37;;;;;;;;;;;3.20;96.20;;;;;;4421231;32;20031;-73
2021/01/26 11:36:04;;;;;;;;;;;3.20;96.10;;;;;;4407461;32;20034;-73
2021/01/26 11:38:36;;;;;;;;;;;3.20;96.00;;;;;;4410057;32;20007;-73
2021/01/26 11:41:05;;;;;;;;;;;3.30;96.10;;;;;;4410597;32;20051;-74
2021/01/26 11:43:32;;;;;;;;;;;3.30;96.10;;;;;;4423857;32;20047;-74
2021/01/26 11:46:02;;;;;;;;;;;3.30;96.10;;;;;;4422977;32;40227;-73
2021/01/26 11:48:29;;;;;;;;;;;3.30;96.00;;;;;;4423568;32;20077;-74
2021/01/26 11:51:00;;;;;;;;;;;3.30;96.30;;;;;;4409715;32;28086;-73
2021/01/26 11:53:32;;;;;;;;;;;3.40;96.00;;;;;;4423406;32;28533;-74
2021/01/26 11:56:02;;;;;;;;;;;3.30;96.00;;;;;;4423885;32;20355;-73
2021/01/26 11:58:32;;;;;;;;;;;3.30;96.00;;;;;;4408888;32;37045;-74
2021/01/26 12:01:02;;;;;;;;;;;3.40;96.00;;;;;;4423518;32;25226;-74
2021/01/26 12:03:29;;;;;;;;;;;3.40;96.00;;;;;;4409543;32;25665;-74
2021/01/26 12:06:00;;;;;;;;;;;3.40;96.10;;;;;;4410117;32;25744;-74
2021/01/26 12:08:26;;;;;;;;;;;3.40;96.10;;;;;;4422838;32;21980;-74
2021/01/26 12:10:53;;;;;;;;;;;3.40;96.00;;;;;;4423570;32;20018;-74
2021/01/26 12:13:20;;;;;;;;;;;3.50;96.00;;;;;;4423742;32;20017;-74
2021/01/26 12:15:50;;;;;;;;;;;3.50;95.90;;;;;;4423656;32;20086;-74
2021/01/26 12:18:16;;;;;;;;;;;3.50;95.90;;;;;;4409070;32;30281;-74
2021/01/26 12:20:43;;;;;;;;;;;3.50;96.00;;;;;;4408630;32;36921;-74
2021/01/26 12:23:10;;;;;;;;;;;3.60;96.00;;;;;;4423056;32;24241;-74
2021/01/26 12:25:39;;;;;;;;;;;3.60;95.90;;;;;;4409738;32;20059;-74
2021/01/26 12:28:07;;;;;;;;;;;3.70;95.90;;;;;;4409563;32;21112;-74
2021/01/26 12:30:37;;;;;;;;;;;3.70;95.80;;;;;;4409866;32;20034;-74
2021/01/26 12:33:04;;;;;;;;;;;3.70;95.80;;;;;;4422058;32;37944;-74
2021/01/26 12:35:38;;;;;;;;;;;3.70;95.80;;;;;;4409181;32;20424;-74
2021/01/26 12:38:05;;;;;;;;;;;3.70;95.70;;;;;;4409894;32;19995;-74
2021/01/26 12:40:32;;;;;;;;;;;3.80;95.70;;;;;;4408657;32;35461;-73
2021/01/26 12:42:59;;;;;;;;;;;3.80;95.80;;;;;;4422274;32;40139;-74
2021/01/26 12:45:28;;;;;;;;;;;3.80;95.80;;;;;;4423448;32;20066;-74
2021/01/26 12:47:56;;;;;;;;;;;3.90;95.80;;;;;;4408355;32;29864;-74
2021/01/26 12:50:27;;;;;;;;;;;4.00;95.80;;;;;;4396643;32;20024;-73
2021/01/26 12:52:55;;;;;;;;;;;4.00;95.80;;;;;;4408441;32;33907;-73
2021/01/26 12:55:22;;;;;;;;;;;4.10;95.80;;;;;;4423107;32;20056;-74
2021/01/26 12:57:51;;;;;;;;;;;4.20;95.80;;;;;;4409071;32;20043;-74
2021/01/26 13:00:19;;;;;;;;;;;4.20;95.60;;;;;;4395698;32;38795;-74
2021/01/26 13:02:46;;;;;;;;;;;4.30;95.60;;;;;;4422689;32;20067;-74
2021/01/26 13:05:14;;;;;;;;;;;4.30;95.60;;;;;;4422738;32;19999;-74
2021/01/26 13:07:40;;;;;;;;;;;4.40;95.50;;;;;;4423152;32;20022;-74
2021/01/26 13:10:08;;;;;;;;;;;4.40;95.50;;;;;;4396370;32;20104;-74
2021/01/26 13:12:35;;;;;;;;;;;4.40;95.40;;;;;;4408057;32;42838;-74
2021/01/26 13:15:03;;;;;;;;;;;4.50;95.40;;;;;;4408627;32;26429;-74
2021/01/26 13:17:30;;;;;;;;;;;4.50;95.30;;;;;;4395695;32;20004;-74
2021/01/26 13:19:58;;;;;;;;;;;4.50;95.30;;;;;;4422295;32;25370;-74
2021/01/26 13:22:24;;;;;;;;;;;4.50;95.30;;;;;;4409126;32;20004;-74
2021/01/26 13:24:52;;;;;;;;;;;4.60;95.30;;;;;;4408630;32;28889;-74
2021/01/26 13:27:19;;;;;;;;;;;4.60;95.20;;;;;;4422253;32;20007;-74
2021/01/26 13:29:46;;;;;;;;;;;4.70;95.30;;;;;;4395565;32;29749;-74
2021/01/26 13:32:13;;;;;;;;;;;4.70;95.20;;;;;;4395283;32;32974;-74
2021/01/26 13:34:42;;;;;;;;;;;4.70;95.10;;;;;;4421606;32;42165;-74
2021/01/26 13:37:09;;;;;;;;;;;4.70;95.00;;;;;;4422552;32;20094;-74
2021/01/26 13:39:36;;;;;;;;;;;4.80;95.00;;;;;;4408610;32;20000;-74
2021/01/26 13:42:03;;;;;;;;;;;4.80;95.00;;;;;;4408191;32;20405;-74
2021/01/26 13:44:29;;;;;;;;;;;4.80;95.30;;;;;;4421561;32;32305;-74
2021/01/26 13:46:57;;;;;;;;;;;4.80;94.90;;;;;;4421379;32;28676;-74
2021/01/26 13:49:25;;;;;;;;;;;4.80;95.00;;;;;;4421310;32;36578;-74
2021/01/26 13:51:52;;;;;;;;;;;4.80;95.00;;;;;;4407462;32;35380;-74
2021/01/26 13:54:19;;;;;;;;;;;4.80;95.00;;;;;;4407618;32;41710;-74
2021/01/26 13:56:51;;;;;;;;;;;4.80;94.80;;;;;;4422126;32;20019;-73
2021/01/26 13:59:18;;;;;;;;;;;4.80;94.90;;;;;;4421497;32;29094;-74
2021/01/26 14:01:44;;;;;;;;;;;4.80;95.00;;;;;;4404726;32;23762;-74
2021/01/26 14:04:11;;;;;;;;;;;4.80;95.00;;;;;;4406136;32;40386;-74
2021/01/26 14:06:38;;;;;;;;;;;4.80;94.90;;;;;;4406053;32;31286;-74
2021/01/26 14:09:06;;;;;;;;;;;4.80;95.00;;;;;;4406256;32;29176;-74
2021/01/26 14:11:33;;;;;;;;;;;4.80;94.90;;;;;;4404364;32;39412;-74
2021/01/26 14:14:03;;;;;;;;;;;4.80;95.00;;;;;;4404236;32;40289;-74
2021/01/26 14:16:29;;;;;;;;;;;4.70;94.90;;;;;;4404491;32;38943;-74
2021/01/26 14:18:56;;;;;;;;;;;4.80;94.80;;;;;;4406123;32;22800;-74
2021/01/26 14:21:23;;;;;;;;;;;4.70;94.80;;;;;;4406821;32;20018;-74
2021/01/26 14:23:50;;;;;;;;;;;4.70;95.00;;;;;;4406913;32;20067;-74
2021/01/26 14:26:17;;;;;;;;;;;4.70;95.00;;;;;;4405746;32;20030;-75
2021/01/26 14:28:43;;;;;;;;;;;4.70;95.00;;;;;;4405833;32;26025;-74
2021/01/26 14:31:15;;;;;;;;;;;4.60;95.10;;;;;;4406800;32;20027;-74
2021/01/26 14:33:42;;;;;;;;;;;4.60;95.10;;;;;;4404935;32;32851;-74
2021/01/26 14:36:09;;;;;;;;;;;4.60;95.10;;;;;;4406519;32;20097;-75
2021/01/26 14:38:36;;;;;;;;;;;4.60;95.10;;;;;;4404637;32;28147;-74
2021/01/26 14:41:03;;;;;;;;;;;4.60;95.10;;;;;;4406097;32;22275;-74
2021/01/26 14:43:32;;;;;;;;;;;4.60;95.20;;;;;;4405710;32;20092;-74
2021/01/26 14:46:05;;;;;;;;;;;4.60;95.10;;;;;;4404646;32;23481;-74
2021/01/26 14:48:33;;;;;;;;;;;4.60;95.10;;;;;;4405756;32;30900;-74
2021/01/26 14:51:03;;;;;;;;;;;4.60;95.00;;;;;;4406367;32;20041;-74
2021/01/26 14:53:32;;;;;;;;;;;4.60;95.20;;;;;;4406006;32;20085;-74
2021/01/26 14:56:02;;;;;;;;;;;4.70;95.20;;;;;;4404701;32;20066;-73
2021/01/26 14:58:34;;;;;;;;;;;4.70;95.10;;;;;;4405436;32;20030;-73
2021/01/26 15:01:07;;;;;;;;;;;4.70;95.00;;;;;;4405366;32;20340;-74